createdAt,value
2018-06-21T00:01:33.423Z,10.40
2018-06-21T00:04:02.536Z,10.73
2018-06-21T00:06:31.740Z,9.10
2018-06-21T00:09:01.088Z,9.20
2018-06-21T00:11:30.192Z,9.83
2018-06-21T00:13:59.297Z,10.10
2018-06-21T00:16:28.490Z,8.70
2018-06-21T00:18:57.648Z,10.53
2018-06-21T00:21:26.764Z,10.17
2018-06-21T00:23:55.971Z,9.83
2018-06-21T00:26:25.344Z,10.40
2018-06-21T00:28:54.450Z,10.00
2018-06-21T00:31:23.838Z,9.73
2018-06-21T00:33:52.972Z,9.63
2018-06-21T00:36:22.080Z,10.23
2018-06-21T00:38:51.263Z,10.30
2018-06-21T00:41:20.371Z,10.20
2018-06-21T00:43:49.483Z,10.87
2018-06-21T00:46:18.624Z,9.90
2018-06-21T00:48:47.860Z,10.30
2018-06-21T00:51:17.015Z,11.23
2018-06-21T00:53:46.174Z,11.03
2018-06-21T00:56:19.494Z,9.90
2018-06-21T00:58:49.500Z,9.70
2018-06-21T01:01:19.114Z,9.93
2018-06-21T01:03:48.628Z,11.07
2018-06-21T01:06:17.823Z,9.80
2018-06-21T01:08:46.927Z,11.40
2018-06-21T01:11:16.024Z,9.50
2018-06-21T01:13:45.167Z,11.30
2018-06-21T01:16:14.327Z,10.87
2018-06-21T01:18:43.430Z,10.93
2018-06-21T01:21:12.605Z,10.97
2018-06-21T01:23:41.926Z,10.20
2018-06-21T01:26:11.026Z,10.80
2018-06-21T01:28:40.126Z,10.70
2018-06-21T01:31:09.218Z,10.10
2018-06-21T01:33:38.523Z,10.83
2018-06-21T01:36:07.610Z,11.17
2018-06-21T01:38:36.906Z,10.03
2018-06-21T01:41:06.018Z,11.00
2018-06-21T01:43:35.101Z,10.47
2018-06-21T01:46:04.391Z,11.73
2018-06-21T01:48:33.466Z,10.43
2018-06-21T01:51:02.651Z,10.60
2018-06-21T01:53:31.941Z,10.30
2018-06-21T01:56:01.044Z,11.47
2018-06-21T01:58:30.370Z,11.30
2018-06-21T02:00:59.468Z,10.63
2018-06-21T02:03:28.534Z,10.97
2018-06-21T02:05:58.081Z,10.77
2018-06-21T02:08:27.393Z,11.03
2018-06-21T02:10:56.455Z,10.50
2018-06-21T02:13:25.808Z,10.30
2018-06-21T02:15:54.880Z,10.20
2018-06-21T02:18:24.169Z,11.20
2018-06-21T02:20:53.264Z,11.20
2018-06-21T02:23:22.688Z,10.23
2018-06-21T02:25:53.562Z,10.23
2018-06-21T02:28:22.671Z,11.30
2018-06-21T02:30:51.745Z,11.10
2018-06-21T02:33:20.872Z,10.33
2018-06-21T02:35:49.958Z,11.37
2018-06-21T02:38:19.127Z,11.30
2018-06-21T02:40:48.226Z,11.27
2018-06-21T02:43:17.289Z,10.83
2018-06-21T02:45:46.944Z,10.97
2018-06-21T02:48:16.417Z,11.70
2018-06-21T02:50:45.481Z,11.50
2018-06-21T02:53:14.554Z,10.83
2018-06-21T02:55:43.877Z,11.40
2018-06-21T02:58:12.978Z,9.87
2018-06-21T03:00:42.347Z,11.60
2018-06-21T03:03:11.526Z,11.50
2018-06-21T03:05:40.658Z,10.63
2018-06-21T03:08:09.950Z,11.50
2018-06-21T03:10:39.155Z,10.70
2018-06-21T03:13:08.451Z,10.70
2018-06-21T03:15:38.266Z,11.67
2018-06-21T03:18:07.394Z,12.30
2018-06-21T03:20:36.451Z,10.50
2018-06-21T03:23:05.558Z,11.40
2018-06-21T03:25:34.670Z,10.33
2018-06-21T03:28:03.725Z,11.83
2018-06-21T03:30:32.807Z,12.20
2018-06-21T03:33:02.269Z,10.37
2018-06-21T03:35:31.398Z,10.93
2018-06-21T03:38:00.773Z,11.03
2018-06-21T03:40:30.508Z,11.00
2018-06-21T03:43:00.221Z,10.53
2018-06-21T03:45:29.539Z,10.60
2018-06-21T03:47:59.746Z,10.70
2018-06-21T03:50:29.070Z,10.57
2018-06-21T03:52:58.173Z,11.20
2018-06-21T03:55:27.358Z,10.60
2018-06-21T03:57:56.452Z,11.00
2018-06-21T04:00:26.218Z,10.53
2018-06-21T04:02:55.733Z,10.80
2018-06-21T04:05:24.830Z,10.00
2018-06-21T04:07:54.160Z,11.30
2018-06-21T04:10:23.226Z,11.10
2018-06-21T04:12:52.545Z,10.00
2018-06-21T04:15:21.661Z,11.20
2018-06-21T04:17:50.732Z,10.70
2018-06-21T04:20:19.788Z,11.40
2018-06-21T04:22:49.709Z,10.40
2018-06-21T04:25:19.422Z,10.47
2018-06-21T04:27:48.483Z,10.20
2018-06-21T04:30:18.540Z,10.20
2018-06-21T04:32:47.987Z,10.30
2018-06-21T04:35:17.275Z,10.10
2018-06-21T04:37:46.834Z,9.40
2018-06-21T04:40:16.139Z,8.70
2018-06-21T04:42:45.217Z,10.50
2018-06-21T04:45:14.613Z,9.73
2018-06-21T04:47:43.678Z,9.00
2018-06-21T04:50:12.753Z,9.43
2018-06-21T04:52:42.649Z,10.80
2018-06-21T04:55:12.161Z,10.67
2018-06-21T04:57:41.291Z,9.90
2018-06-21T05:00:10.485Z,10.43
2018-06-21T05:02:39.719Z,10.90
2018-06-21T05:05:08.810Z,9.57
2018-06-21T05:07:37.961Z,9.60
2018-06-21T05:10:07.250Z,10.20
2018-06-21T05:12:36.326Z,9.90
2018-06-21T05:15:05.477Z,10.13
2018-06-21T05:17:35.400Z,9.00
2018-06-21T05:20:04.526Z,10.20
2018-06-21T05:22:33.807Z,8.43
2018-06-21T05:25:02.927Z,10.17
2018-06-21T05:27:32.310Z,10.27
2018-06-21T05:30:01.354Z,10.23
2018-06-21T05:32:30.647Z,9.13
2018-06-21T05:35:00.798Z,10.07
2018-06-21T05:37:30.082Z,8.80
2018-06-21T05:39:59.113Z,9.93
2018-06-21T05:42:28.212Z,10.03
2018-06-21T05:44:57.259Z,9.37
2018-06-21T05:47:26.547Z,9.90
2018-06-21T05:49:55.605Z,9.23
2018-06-21T05:52:24.629Z,8.40
2018-06-21T05:54:53.897Z,8.60
2018-06-21T05:57:22.988Z,9.50
2018-06-21T05:59:52.261Z,8.60
2018-06-21T06:02:21.550Z,8.27
2018-06-21T06:04:50.877Z,8.13
2018-06-21T06:07:19.916Z,8.70
2018-06-21T06:09:49.209Z,8.60
2018-06-21T06:12:25.321Z,8.40
2018-06-21T06:14:54.350Z,8.90
2018-06-21T06:17:23.701Z,8.97
2018-06-21T06:19:53.098Z,8.80
2018-06-21T06:22:22.575Z,8.13
2018-06-21T06:24:51.929Z,8.13
2018-06-21T06:27:21.215Z,8.40
2018-06-21T06:29:50.325Z,7.70
2018-06-21T06:32:20.167Z,8.37
2018-06-21T06:34:49.200Z,7.97
2018-06-21T06:37:21.349Z,8.40
2018-06-21T06:39:50.385Z,8.03
2018-06-21T06:42:19.441Z,8.43
2018-06-21T06:44:48.760Z,8.20
2018-06-21T06:47:17.797Z,8.13
2018-06-21T06:49:46.885Z,7.80
2018-06-21T06:52:15.938Z,8.23
2018-06-21T06:54:46.785Z,7.43
2018-06-21T06:57:16.503Z,6.93
2018-06-21T06:59:45.709Z,7.40
2018-06-21T07:02:15.354Z,7.43
2018-06-21T07:04:45.023Z,7.97
2018-06-21T07:07:16.163Z,7.13
2018-06-21T07:09:45.711Z,7.30
2018-06-21T07:12:15.182Z,7.87
2018-06-21T07:14:44.282Z,7.37
2018-06-21T07:17:13.765Z,7.77
2018-06-21T07:19:42.954Z,6.87
2018-06-21T07:22:12.451Z,6.87
2018-06-21T07:24:41.621Z,6.03
2018-06-21T07:27:10.896Z,7.00
2018-06-21T07:29:39.973Z,6.40
2018-06-21T07:32:09.246Z,6.53
2018-06-21T07:34:38.477Z,5.60
2018-06-21T07:37:07.681Z,5.70
2018-06-21T07:39:36.798Z,5.80
2018-06-21T07:42:05.892Z,5.90
2018-06-21T07:44:35.214Z,6.30
2018-06-21T07:47:04.597Z,6.83
2018-06-21T07:49:34.008Z,5.70
2018-06-21T07:52:03.294Z,6.07
2018-06-21T07:54:32.553Z,5.90
2018-06-21T07:57:01.814Z,6.07
2018-06-21T07:59:30.994Z,6.30
2018-06-21T08:02:00.233Z,6.60
2018-06-21T08:04:29.594Z,6.57
2018-06-21T08:06:58.912Z,5.83
2018-06-21T08:09:28.090Z,5.73
2018-06-21T08:11:57.429Z,5.80
2018-06-21T08:14:26.614Z,5.60
2018-06-21T08:16:56.537Z,5.33
2018-06-21T08:19:26.631Z,6.03
2018-06-21T08:21:55.733Z,5.43
2018-06-21T08:24:25.592Z,5.43
2018-06-21T08:26:55.105Z,5.20
2018-06-21T08:29:24.705Z,6.30
2018-06-21T08:31:54.334Z,4.97
2018-06-21T08:34:23.734Z,6.07
2018-06-21T08:36:53.134Z,5.17
2018-06-21T08:39:22.189Z,5.80
2018-06-21T08:41:51.240Z,5.97
2018-06-21T08:44:20.278Z,5.60
2018-06-21T08:46:49.549Z,5.50
2018-06-21T08:49:19.144Z,5.17
2018-06-21T08:51:48.158Z,5.87
2018-06-21T08:54:17.177Z,5.43
2018-06-21T08:56:47.017Z,5.77
2018-06-21T08:59:16.256Z,6.13
2018-06-21T09:01:45.278Z,6.07
2018-06-21T09:04:14.457Z,5.87
2018-06-21T09:06:43.700Z,5.67
2018-06-21T09:09:12.953Z,6.27
2018-06-21T09:11:42.003Z,5.60
2018-06-21T09:14:11.036Z,5.13
2018-06-21T09:16:40.337Z,5.20
2018-06-21T09:19:09.393Z,5.13
2018-06-21T09:21:38.421Z,5.90
2018-06-21T09:24:07.696Z,5.50
2018-06-21T09:26:36.764Z,4.90
2018-06-21T09:29:06.188Z,5.03
2018-06-21T09:31:35.619Z,5.07
2018-06-21T09:34:04.901Z,4.93
2018-06-21T09:36:37.401Z,5.20
2018-06-21T09:39:15.396Z,4.80
2018-06-21T09:41:49.986Z,4.63
2018-06-21T09:44:24.434Z,5.20
2018-06-21T09:46:58.761Z,4.80
2018-06-21T09:49:32.475Z,4.53
2018-06-21T09:52:03.822Z,4.50
2018-06-21T09:54:33.499Z,4.60
2018-06-21T09:57:03.414Z,4.27
2018-06-21T09:59:32.497Z,4.60
2018-06-21T10:02:01.549Z,4.03
2018-06-21T10:04:30.873Z,4.07
2018-06-21T10:07:00.199Z,4.57
2018-06-21T10:09:29.288Z,3.80
2018-06-21T10:11:58.343Z,3.93
2018-06-21T10:14:27.853Z,4.27
2018-06-21T10:16:57.126Z,4.63
2018-06-21T10:19:26.167Z,4.23
2018-06-21T10:21:55.198Z,4.00
2018-06-21T10:24:24.264Z,4.30
2018-06-21T10:26:53.540Z,4.47
2018-06-21T10:29:22.714Z,4.40
2018-06-21T10:31:51.950Z,4.30
2018-06-21T10:34:21.169Z,4.43
2018-06-21T10:36:50.433Z,3.90
2018-06-21T10:39:19.766Z,5.70
2018-06-21T10:41:48.828Z,6.97
2018-06-21T10:44:17.942Z,5.12
2018-06-21T10:46:47.208Z,4.00
2018-06-21T10:49:16.292Z,4.10
2018-06-21T10:51:45.393Z,3.80
2018-06-21T10:54:14.452Z,3.70
2018-06-21T10:56:43.528Z,3.60
2018-06-21T10:59:12.613Z,3.00
2018-06-21T11:01:41.685Z,3.50
2018-06-21T11:04:10.739Z,3.10
2018-06-21T11:06:39.807Z,3.20
2018-06-21T11:09:09.220Z,2.97
2018-06-21T11:11:38.291Z,3.43
2018-06-21T11:14:07.441Z,3.17
2018-06-21T11:16:36.681Z,2.97
2018-06-21T11:19:05.954Z,3.00
2018-06-21T11:21:35.028Z,2.97
2018-06-21T11:24:04.761Z,3.10
2018-06-21T11:26:34.277Z,2.80
2018-06-21T11:29:03.309Z,2.80
2018-06-21T11:31:32.333Z,2.50
2018-06-21T11:34:01.390Z,2.60
2018-06-21T11:36:30.415Z,2.83
2018-06-21T11:39:00.018Z,2.37
2018-06-21T11:41:29.387Z,2.80
2018-06-21T11:43:58.498Z,2.53
2018-06-21T11:46:27.669Z,2.33
2018-06-21T11:48:56.845Z,2.10
2018-06-21T11:51:26.138Z,2.60
2018-06-21T11:53:55.216Z,2.00
2018-06-21T11:56:24.682Z,2.30
2018-06-21T11:58:54.005Z,2.27
2018-06-21T12:01:23.277Z,2.17
2018-06-21T12:03:52.336Z,2.10
2018-06-21T12:06:21.369Z,2.50
2018-06-21T12:08:50.514Z,2.07
2018-06-21T12:11:19.765Z,1.93
2018-06-21T12:13:48.801Z,1.63
2018-06-21T12:16:18.087Z,1.60
2018-06-21T12:18:47.208Z,1.70
2018-06-21T12:21:16.235Z,1.50
2018-06-21T12:23:45.262Z,1.60
2018-06-21T12:26:14.427Z,1.70
2018-06-21T12:28:43.622Z,1.63
2018-06-21T12:31:12.692Z,1.30
2018-06-21T12:33:41.802Z,1.57
2018-06-21T12:36:11.877Z,1.40
2018-06-21T12:38:41.470Z,1.30
2018-06-21T12:41:10.574Z,1.20
2018-06-21T12:43:39.912Z,1.40
2018-06-21T12:46:09.256Z,1.40
2018-06-21T12:48:38.713Z,1.27
2018-06-21T12:51:07.810Z,1.10
2018-06-21T12:53:36.862Z,1.50
2018-06-21T12:56:06.155Z,1.27
2018-06-21T12:58:35.201Z,1.13
2018-06-21T13:01:04.289Z,1.60
2018-06-21T13:03:35.438Z,1.60
2018-06-21T13:06:04.477Z,1.30
2018-06-21T13:08:44.929Z,1.40
2018-06-21T13:11:30.876Z,1.20
2018-06-21T13:14:11.403Z,1.20
2018-06-21T13:16:40.493Z,1.23
2018-06-21T13:19:09.539Z,1.10
2018-06-21T13:21:38.837Z,1.20
2018-06-21T13:24:08.089Z,1.10
2018-06-21T13:26:37.112Z,1.00
2018-06-21T13:29:06.372Z,0.97
2018-06-21T13:31:35.633Z,1.10
2018-06-21T13:34:04.665Z,1.10
2018-06-21T13:36:33.746Z,0.90
2018-06-21T13:39:02.791Z,1.00
2018-06-21T13:41:32.116Z,1.00
2018-06-21T13:44:01.173Z,0.93
2018-06-21T13:46:30.290Z,0.80
2018-06-21T13:48:59.330Z,0.90
2018-06-21T13:51:28.409Z,0.87
2018-06-21T13:53:57.447Z,0.87
2018-06-21T13:56:26.725Z,0.87
2018-06-21T13:58:56.013Z,1.00
2018-06-21T14:01:25.273Z,1.00
2018-06-21T14:03:54.542Z,1.00
2018-06-21T14:06:23.810Z,1.13
2018-06-21T14:08:53.082Z,1.00
2018-06-21T14:11:22.119Z,0.90
2018-06-21T14:13:51.190Z,0.90
2018-06-21T14:16:20.497Z,1.10
2018-06-21T14:18:49.558Z,1.00
2018-06-21T14:21:18.635Z,0.90
2018-06-21T14:23:47.670Z,1.00
2018-06-21T14:26:16.713Z,1.10
2018-06-21T14:28:46.283Z,0.93
2018-06-21T14:31:15.550Z,1.00
2018-06-21T14:33:44.818Z,1.00
2018-06-21T14:36:13.965Z,0.87
2018-06-21T14:38:42.988Z,0.97
2018-06-21T14:41:12.017Z,1.00
2018-06-21T14:43:41.293Z,1.10
2018-06-21T14:46:10.513Z,0.80
2018-06-21T14:48:39.776Z,0.87
2018-06-21T14:51:08.842Z,0.90
2018-06-21T14:53:38.385Z,0.90
2018-06-21T14:56:07.385Z,0.80
2018-06-21T14:58:36.665Z,0.90
2018-06-21T15:01:05.694Z,1.00
2018-06-21T15:03:34.833Z,0.93
2018-06-21T15:06:03.881Z,0.87
2018-06-21T15:08:32.924Z,0.90
2018-06-21T15:11:01.957Z,1.00
2018-06-21T15:13:31.101Z,0.80
2018-06-21T15:16:00.125Z,1.03
2018-06-21T15:18:29.181Z,0.80
2018-06-21T15:20:58.500Z,0.87
2018-06-21T15:23:27.579Z,0.90
2018-06-21T15:25:56.675Z,1.00
2018-06-21T15:28:25.757Z,0.90
2018-06-21T15:30:54.790Z,0.80
2018-06-21T15:33:23.832Z,0.80
2018-06-21T15:35:53.202Z,0.80
2018-06-21T15:38:22.628Z,0.73
2018-06-21T15:40:51.658Z,0.90
2018-06-21T15:43:20.926Z,0.80
2018-06-21T15:45:49.977Z,1.00
2018-06-21T15:48:19.065Z,0.80
2018-06-21T15:50:48.377Z,0.90
2018-06-21T15:53:17.667Z,0.90
2018-06-21T15:55:46.697Z,1.10
2018-06-21T15:58:16.016Z,0.80
2018-06-21T16:00:45.057Z,0.90
2018-06-21T16:03:14.099Z,1.07
2018-06-21T16:05:43.149Z,0.80
2018-06-21T16:08:12.200Z,0.80
2018-06-21T16:10:41.210Z,0.80
2018-06-21T16:13:10.944Z,1.00
2018-06-21T16:15:40.230Z,0.87
2018-06-21T16:18:09.305Z,0.73
2018-06-21T16:20:38.600Z,0.87
2018-06-21T16:23:07.640Z,1.10
2018-06-21T16:25:36.962Z,0.87
2018-06-21T16:28:06.441Z,0.80
2018-06-21T16:30:36.049Z,0.80
2018-06-21T16:33:05.229Z,0.93
2018-06-21T16:35:34.341Z,0.90
2018-06-21T16:38:03.637Z,0.87
2018-06-21T16:40:32.989Z,0.70
2018-06-21T16:43:02.285Z,0.77
2018-06-21T16:45:31.906Z,0.70
2018-06-21T16:48:00.941Z,0.93
2018-06-21T16:50:30.046Z,0.90
2018-06-21T16:52:59.316Z,0.80
2018-06-21T16:55:28.366Z,0.70
2018-06-21T16:57:57.638Z,0.90
2018-06-21T17:00:26.921Z,0.70
2018-06-21T17:02:56.291Z,0.80
2018-06-21T17:05:25.571Z,0.80
2018-06-21T17:07:54.661Z,0.80
2018-06-21T17:10:23.963Z,0.80
2018-06-21T17:12:53.010Z,0.70
2018-06-21T17:15:22.030Z,0.83
2018-06-21T17:17:51.061Z,0.70
2018-06-21T17:20:20.152Z,0.77
2018-06-21T17:22:49.405Z,0.93
2018-06-21T17:25:18.465Z,0.83
2018-06-21T17:27:47.554Z,0.80
2018-06-21T17:30:16.671Z,0.80
2018-06-21T17:32:45.908Z,0.90
2018-06-21T17:35:15.119Z,1.00
2018-06-21T17:37:44.224Z,0.70
2018-06-21T17:40:13.250Z,1.00
2018-06-21T17:42:42.299Z,0.80
2018-06-21T17:45:11.312Z,0.90
2018-06-21T17:47:40.409Z,0.70
2018-06-21T17:50:09.564Z,0.80
2018-06-21T17:52:38.650Z,0.83
2018-06-21T17:55:07.692Z,0.80
2018-06-21T17:57:36.785Z,0.70
2018-06-21T18:00:05.967Z,0.73
2018-06-21T18:02:35.062Z,0.60
2018-06-21T18:05:04.115Z,0.70
2018-06-21T18:07:33.219Z,0.70
2018-06-21T18:10:02.506Z,0.60
2018-06-21T18:12:31.697Z,0.60
2018-06-21T18:15:01.232Z,0.70
2018-06-21T18:17:30.581Z,0.70
2018-06-21T18:20:00.151Z,0.70
2018-06-21T18:22:29.273Z,0.70
2018-06-21T18:24:58.837Z,0.60
2018-06-21T18:27:28.425Z,0.70
2018-06-21T18:29:57.673Z,0.63
2018-06-21T18:32:28.723Z,0.80
2018-06-21T18:34:58.215Z,0.70
2018-06-21T18:37:27.333Z,0.70
2018-06-21T18:39:56.535Z,0.70
2018-06-21T18:42:25.647Z,0.70
2018-06-21T18:44:54.898Z,0.80
2018-06-21T18:47:23.978Z,0.60
2018-06-21T18:49:54.711Z,0.70
2018-06-21T18:52:24.228Z,0.60
2018-06-21T18:54:54.301Z,0.70
2018-06-21T18:57:23.680Z,0.60
2018-06-21T18:59:52.709Z,0.77
2018-06-21T19:02:23.677Z,0.50
2018-06-21T19:04:52.862Z,0.60
2018-06-21T19:07:27.821Z,0.60
2018-06-21T19:10:02.402Z,0.60
2018-06-21T19:12:31.742Z,0.60
2018-06-21T19:15:00.783Z,0.60
2018-06-21T19:17:30.205Z,0.70
2018-06-21T19:19:59.417Z,0.60
2018-06-21T19:22:28.478Z,0.60
2018-06-21T19:24:57.501Z,0.70
2018-06-21T19:27:26.610Z,0.50
2018-06-21T19:29:55.758Z,0.60
2018-06-21T19:32:24.918Z,0.50
2018-06-21T19:34:54.393Z,0.60
2018-06-21T19:37:23.697Z,0.60
2018-06-21T19:39:53.320Z,0.60
2018-06-21T19:42:22.375Z,0.60
2018-06-21T19:44:51.481Z,0.60
2018-06-21T19:47:20.826Z,0.60
2018-06-21T19:49:49.974Z,0.83
2018-06-21T19:52:19.030Z,1.07
2018-06-21T19:54:48.775Z,1.00
2018-06-21T19:57:17.849Z,1.10
2018-06-21T19:59:46.951Z,1.10
2018-06-21T20:02:16.044Z,1.10
2018-06-21T20:04:45.305Z,1.10
2018-06-21T20:07:14.602Z,1.10
2018-06-21T20:09:43.686Z,2.40
2018-06-21T20:12:13.034Z,3.00
2018-06-21T20:14:42.370Z,4.40
2018-06-21T20:17:11.563Z,4.03
2018-06-21T20:19:45.882Z,2.93
2018-06-21T20:22:15.593Z,2.10
2018-06-21T20:24:44.997Z,1.90
2018-06-21T20:27:14.043Z,1.50
2018-06-21T20:29:43.369Z,1.00
2018-06-21T20:32:12.401Z,1.10
2018-06-21T20:34:41.433Z,1.00
2018-06-21T20:37:15.704Z,1.30
2018-06-21T20:39:44.799Z,1.43
2018-06-21T20:42:14.078Z,1.73
2018-06-21T20:44:43.127Z,1.20
2018-06-21T20:47:12.398Z,1.10
2018-06-21T20:49:41.729Z,1.10
2018-06-21T20:52:16.065Z,1.10
2018-06-21T20:54:45.141Z,1.17
2018-06-21T20:57:14.343Z,1.10
2018-06-21T20:59:43.910Z,0.80
2018-06-21T21:02:13.174Z,1.00
2018-06-21T21:05:16.544Z,1.10
2018-06-21T21:07:47.021Z,0.80
2018-06-21T21:10:17.080Z,1.00
2018-06-21T21:12:46.341Z,0.97
2018-06-21T21:15:15.999Z,0.90
2018-06-21T21:17:45.290Z,1.07
2018-06-21T21:20:14.552Z,0.93
2018-06-21T21:22:43.632Z,1.00
2018-06-21T21:25:12.654Z,1.10
2018-06-21T21:27:41.741Z,0.80
2018-06-21T21:30:10.926Z,0.87
2018-06-21T21:32:40.044Z,0.80
2018-06-21T21:35:09.429Z,0.90
2018-06-21T21:37:38.467Z,0.90
2018-06-21T21:40:07.932Z,0.90
2018-06-21T21:42:38.225Z,0.80
2018-06-21T21:45:07.634Z,0.90
2018-06-21T21:47:36.688Z,0.97
2018-06-21T21:50:05.761Z,0.90
2018-06-21T21:52:35.018Z,0.80
2018-06-21T21:55:04.059Z,0.80
2018-06-21T21:57:33.073Z,1.00
2018-06-21T22:00:02.116Z,0.80
2018-06-21T22:02:32.641Z,0.73
2018-06-21T22:05:01.834Z,0.97
2018-06-21T22:07:30.849Z,0.80
2018-06-21T22:10:00.115Z,0.87
2018-06-21T22:12:29.136Z,1.30
2018-06-21T22:14:58.141Z,0.97
2018-06-21T22:17:27.412Z,0.80
2018-06-21T22:19:56.423Z,0.90
2018-06-21T22:22:25.576Z,0.90
2018-06-21T22:24:54.861Z,1.03
2018-06-21T22:27:23.917Z,1.10
2018-06-21T22:29:52.930Z,1.10
2018-06-21T22:32:22.009Z,0.90
2018-06-21T22:34:51.273Z,0.80
2018-06-21T22:37:20.363Z,1.10
2018-06-21T22:39:49.435Z,0.87
2018-06-21T22:42:18.438Z,1.03
2018-06-21T22:44:47.564Z,0.90
2018-06-21T22:47:16.797Z,1.00
2018-06-21T22:49:46.081Z,0.83
2018-06-21T22:52:15.142Z,0.90
2018-06-21T22:54:44.411Z,0.90
2018-06-21T22:57:13.658Z,1.10
2018-06-21T22:59:42.699Z,0.90
2018-06-21T23:02:11.710Z,0.90
2018-06-21T23:04:40.714Z,0.90
2018-06-21T23:07:09.965Z,0.73
2018-06-21T23:09:38.988Z,0.90
2018-06-21T23:12:08.010Z,0.77
2018-06-21T23:14:37.033Z,0.90
2018-06-21T23:17:06.377Z,0.80
2018-06-21T23:19:35.392Z,0.90
2018-06-21T23:22:04.385Z,0.80
2018-06-21T23:24:33.661Z,1.03
2018-06-21T23:27:02.656Z,0.93
2018-06-21T23:29:31.874Z,1.10
2018-06-21T23:32:00.925Z,1.00
2018-06-21T23:34:29.937Z,1.10
2018-06-21T23:36:59.177Z,0.90
2018-06-21T23:39:28.238Z,0.90
2018-06-21T23:41:57.454Z,0.90
2018-06-21T23:44:26.454Z,1.00
2018-06-21T23:46:55.484Z,1.00
2018-06-21T23:49:24.500Z,0.87
2018-06-21T23:51:53.506Z,1.17
2018-06-21T23:54:22.572Z,0.93
2018-06-21T23:56:51.564Z,1.10
2018-06-21T23:59:20.896Z,1.00
